createdAt,value
2024-03-26T00:00:14.584Z,2.40
2024-03-26T00:02:47.779Z,4.00
2024-03-26T00:05:20.784Z,4.00
2024-03-26T00:07:53.749Z,3.40
2024-03-26T00:10:26.653Z,3.53
2024-03-26T00:12:59.516Z,4.00
2024-03-26T00:15:32.087Z,3.40
2024-03-26T00:18:04.869Z,3.83
2024-03-26T00:20:37.799Z,3.10
2024-03-26T00:23:10.758Z,2.87
2024-03-26T00:25:43.818Z,4.07
2024-03-26T00:28:16.481Z,4.00
2024-03-26T00:30:49.793Z,2.70
2024-03-26T00:33:22.795Z,3.20
2024-03-26T00:35:55.786Z,3.10
2024-03-26T00:38:28.896Z,3.77
2024-03-26T00:41:04.479Z,4.40
2024-03-26T00:43:37.340Z,2.10
2024-03-26T00:46:10.480Z,2.87
2024-03-26T00:48:43.524Z,2.30
2024-03-26T00:51:16.507Z,2.53
2024-03-26T00:53:49.475Z,2.03
2024-03-26T00:56:22.276Z,2.90
2024-03-26T00:58:55.420Z,3.00
2024-03-26T01:01:28.227Z,2.40
2024-03-26T01:04:01.021Z,3.07
2024-03-26T01:06:34.238Z,2.20
2024-03-26T01:09:07.082Z,2.43
2024-03-26T01:11:41.034Z,2.90
2024-03-26T01:14:15.104Z,2.40
2024-03-26T01:16:47.759Z,2.30
2024-03-26T01:19:21.957Z,2.13
2024-03-26T01:21:55.054Z,3.07
2024-03-26T01:24:28.093Z,2.50
2024-03-26T01:27:01.058Z,2.80
2024-03-26T01:29:33.966Z,3.53
2024-03-26T01:32:06.911Z,2.80
2024-03-26T01:34:39.785Z,2.27
2024-03-26T01:37:12.770Z,2.60
2024-03-26T01:39:45.800Z,3.10
2024-03-26T01:42:18.759Z,2.77
2024-03-26T01:44:52.835Z,2.60
2024-03-26T01:47:26.478Z,2.60
2024-03-26T01:50:01.052Z,1.80
2024-03-26T01:52:34.956Z,2.37
2024-03-26T01:55:11.305Z,2.47
2024-03-26T01:57:45.091Z,2.20
2024-03-26T02:00:19.183Z,2.30
2024-03-26T02:02:53.667Z,2.20
2024-03-26T02:05:26.648Z,2.50
2024-03-26T02:08:00.536Z,2.40
2024-03-26T02:10:33.727Z,2.47
2024-03-26T02:13:06.479Z,2.03
2024-03-26T02:15:39.290Z,3.10
2024-03-26T02:18:12.233Z,2.50
2024-03-26T02:20:45.848Z,2.57
2024-03-26T02:23:21.205Z,2.67
2024-03-26T02:25:54.076Z,2.47
2024-03-26T02:28:27.011Z,2.33
2024-03-26T02:30:59.841Z,2.10
2024-03-26T02:33:32.891Z,1.93
2024-03-26T02:36:05.711Z,2.63
2024-03-26T02:38:38.387Z,2.10
2024-03-26T02:41:11.316Z,2.03
2024-03-26T02:43:44.653Z,2.60
2024-03-26T02:46:17.366Z,3.27
2024-03-26T02:48:50.322Z,2.37
2024-03-26T02:51:23.137Z,2.13
2024-03-26T02:53:56.152Z,2.10
2024-03-26T02:56:28.974Z,2.60
2024-03-26T02:59:01.758Z,3.23
2024-03-26T03:01:34.734Z,2.70
2024-03-26T03:04:07.547Z,3.20
2024-03-26T03:06:40.181Z,2.63
2024-03-26T03:09:15.906Z,2.90
2024-03-26T03:11:48.719Z,1.83
2024-03-26T03:14:21.609Z,3.13
2024-03-26T03:16:54.539Z,2.43
2024-03-26T03:19:27.334Z,2.57
2024-03-26T03:22:00.464Z,2.37
2024-03-26T03:24:33.324Z,2.70
2024-03-26T03:27:06.663Z,2.10
2024-03-26T03:29:39.915Z,2.60
2024-03-26T03:32:12.965Z,3.20
2024-03-26T03:34:45.791Z,1.93
2024-03-26T03:37:19.023Z,2.80
2024-03-26T03:39:51.932Z,2.33
2024-03-26T03:42:24.785Z,1.93
2024-03-26T03:44:57.686Z,2.63
2024-03-26T03:47:30.574Z,2.30
2024-03-26T03:50:03.505Z,1.80
2024-03-26T03:52:36.454Z,3.00
2024-03-26T03:55:09.891Z,2.80
2024-03-26T03:57:43.565Z,2.37
2024-03-26T04:00:17.091Z,1.93
2024-03-26T04:02:50.055Z,2.20
2024-03-26T04:05:22.876Z,2.30
2024-03-26T04:07:55.811Z,2.60
2024-03-26T04:10:28.343Z,2.70
2024-03-26T04:13:01.320Z,2.30
2024-03-26T04:15:34.371Z,1.97
2024-03-26T04:18:07.388Z,1.93
2024-03-26T04:20:40.301Z,1.80
2024-03-26T04:23:13.243Z,1.50
2024-03-26T04:25:46.184Z,1.87
2024-03-26T04:28:19.262Z,1.50
2024-03-26T04:30:52.062Z,2.30
2024-03-26T04:33:26.372Z,2.10
2024-03-26T04:35:59.111Z,1.40
2024-03-26T04:38:31.974Z,2.13
2024-03-26T04:41:04.999Z,2.33
2024-03-26T04:43:37.973Z,2.33
2024-03-26T04:46:11.117Z,2.27
2024-03-26T04:48:43.983Z,2.17
2024-03-26T04:51:16.831Z,2.00
2024-03-26T04:53:49.634Z,2.07
2024-03-26T04:56:23.117Z,1.50
2024-03-26T04:58:55.952Z,2.00
2024-03-26T05:01:28.627Z,3.27
2024-03-26T05:04:01.568Z,2.17
2024-03-26T05:06:34.647Z,3.53
2024-03-26T05:09:07.640Z,1.60
2024-03-26T05:11:42.119Z,2.47
2024-03-26T05:14:15.136Z,2.83
2024-03-26T05:16:49.250Z,2.47
2024-03-26T05:19:22.246Z,1.97
2024-03-26T05:21:55.228Z,2.30
2024-03-26T05:24:27.986Z,2.17
2024-03-26T05:27:00.735Z,3.43
2024-03-26T05:29:33.316Z,2.87
2024-03-26T05:32:06.158Z,1.90
2024-03-26T05:34:39.544Z,2.10
2024-03-26T05:37:12.487Z,1.70
2024-03-26T05:39:46.219Z,3.30
2024-03-26T05:42:18.728Z,2.17
2024-03-26T05:44:51.667Z,2.00
2024-03-26T05:47:24.475Z,2.67
2024-03-26T05:50:21.611Z,1.97
2024-03-26T05:52:54.493Z,2.60
2024-03-26T05:55:27.555Z,2.20
2024-03-26T05:58:00.416Z,1.80
2024-03-26T06:00:33.597Z,1.90
2024-03-26T06:03:06.545Z,1.97
2024-03-26T06:05:39.243Z,2.20
2024-03-26T06:08:12.516Z,2.40
2024-03-26T06:10:45.613Z,2.93
2024-03-26T06:13:18.480Z,2.17
2024-03-26T06:15:51.133Z,2.13
2024-03-26T06:18:25.852Z,2.87
2024-03-26T06:20:58.275Z,2.50
2024-03-26T06:23:31.246Z,2.17
2024-03-26T06:26:03.990Z,1.97
2024-03-26T06:28:37.865Z,2.70
2024-03-26T06:31:11.959Z,2.27
2024-03-26T06:33:45.048Z,3.00
2024-03-26T06:36:17.992Z,2.13
2024-03-26T06:38:50.786Z,2.40
2024-03-26T06:41:23.741Z,2.53
2024-03-26T06:43:56.923Z,2.07
2024-03-26T06:46:29.897Z,3.23
2024-03-26T06:49:02.670Z,2.63
2024-03-26T06:51:35.790Z,2.90
2024-03-26T06:54:08.813Z,2.97
2024-03-26T06:56:41.732Z,2.80
2024-03-26T06:59:14.486Z,2.30
2024-03-26T07:01:47.227Z,2.30
2024-03-26T07:04:20.105Z,2.30
2024-03-26T07:06:53.152Z,2.60
2024-03-26T07:09:26.043Z,2.77
2024-03-26T07:11:58.991Z,2.10
2024-03-26T07:14:31.884Z,2.80
2024-03-26T07:17:04.768Z,2.13
2024-03-26T07:19:37.598Z,2.77
2024-03-26T07:22:10.484Z,2.40
2024-03-26T07:24:43.228Z,2.70
2024-03-26T07:27:16.665Z,2.40
2024-03-26T07:29:51.869Z,2.33
2024-03-26T07:32:25.177Z,2.53
2024-03-26T07:34:57.784Z,2.40
2024-03-26T07:37:30.620Z,1.80
2024-03-26T07:40:04.175Z,2.90
2024-03-26T07:42:37.005Z,2.60
2024-03-26T07:45:11.508Z,3.20
2024-03-26T07:47:44.329Z,3.87
2024-03-26T07:50:17.085Z,3.20
2024-03-26T07:52:50.130Z,2.63
2024-03-26T07:55:22.968Z,2.67
2024-03-26T07:57:55.989Z,2.33
2024-03-26T08:00:29.916Z,3.20
2024-03-26T08:03:02.854Z,2.83
2024-03-26T08:05:35.740Z,2.93
2024-03-26T08:08:08.991Z,2.83
2024-03-26T08:10:43.097Z,5.03
2024-03-26T08:13:15.850Z,2.43
2024-03-26T08:15:49.802Z,3.40
2024-03-26T08:18:22.846Z,2.60
2024-03-26T08:21:03.100Z,2.83
2024-03-26T08:23:36.001Z,3.20
2024-03-26T08:26:08.934Z,2.87
2024-03-26T08:28:41.751Z,3.00
2024-03-26T08:31:14.751Z,2.40
2024-03-26T08:33:47.464Z,3.13
2024-03-26T08:36:21.536Z,2.47
2024-03-26T08:38:54.405Z,2.20
2024-03-26T08:41:27.727Z,2.37
2024-03-26T08:44:00.699Z,2.53
2024-03-26T08:46:33.531Z,3.27
2024-03-26T08:49:06.494Z,2.60
2024-03-26T08:51:39.579Z,3.03
2024-03-26T08:54:12.247Z,3.60
2024-03-26T08:56:45.119Z,3.07
2024-03-26T08:59:19.187Z,3.13
2024-03-26T09:01:52.361Z,2.53
2024-03-26T09:04:26.172Z,3.60
2024-03-26T09:06:59.177Z,3.30
2024-03-26T09:09:35.065Z,2.57
2024-03-26T09:12:08.373Z,3.17
2024-03-26T09:14:41.733Z,2.20
2024-03-26T09:17:14.496Z,1.90
2024-03-26T09:19:47.584Z,2.47
2024-03-26T09:22:20.403Z,3.03
2024-03-26T09:24:53.281Z,2.03
2024-03-26T09:27:26.222Z,2.83
2024-03-26T09:30:00.330Z,2.80
2024-03-26T09:32:33.303Z,3.43
2024-03-26T09:35:06.275Z,2.10
2024-03-26T09:37:39.391Z,2.67
2024-03-26T09:40:15.038Z,2.67
2024-03-26T09:42:48.880Z,2.23
2024-03-26T09:45:23.469Z,2.30
2024-03-26T09:47:57.466Z,2.50
2024-03-26T09:50:36.080Z,3.10
2024-03-26T09:53:10.353Z,3.77
2024-03-26T09:55:43.376Z,2.80
2024-03-26T09:58:16.179Z,2.20
2024-03-26T10:00:52.011Z,2.13
2024-03-26T10:03:30.089Z,2.70
2024-03-26T10:06:04.781Z,2.47
2024-03-26T10:08:37.521Z,2.70
2024-03-26T10:11:11.113Z,2.13
2024-03-26T10:13:43.995Z,2.40
2024-03-26T10:16:16.640Z,2.63
2024-03-26T10:18:50.390Z,2.37
2024-03-26T10:21:23.109Z,2.60
2024-03-26T10:23:57.019Z,2.93
2024-03-26T10:26:29.764Z,2.30
2024-03-26T10:29:02.548Z,2.33
2024-03-26T10:31:35.641Z,2.90
2024-03-26T10:34:12.638Z,2.73
2024-03-26T10:36:46.532Z,2.10
2024-03-26T10:39:21.622Z,2.00
2024-03-26T10:41:56.127Z,2.27
2024-03-26T10:44:29.722Z,1.87
2024-03-26T10:47:03.023Z,2.10
2024-03-26T10:49:36.074Z,3.00
2024-03-26T10:52:10.781Z,2.30
2024-03-26T10:54:44.274Z,2.30
2024-03-26T10:57:18.375Z,2.40
2024-03-26T10:59:51.720Z,2.27
2024-03-26T11:02:25.182Z,1.80
2024-03-26T11:04:58.832Z,2.57
2024-03-26T11:07:31.696Z,3.03
2024-03-26T11:10:07.420Z,2.73
2024-03-26T11:12:42.042Z,2.57
2024-03-26T11:15:22.906Z,2.40
2024-03-26T11:18:09.317Z,2.00
2024-03-26T11:20:42.604Z,2.70
2024-03-26T11:23:16.039Z,3.10
2024-03-26T11:25:50.978Z,2.40
2024-03-26T11:28:24.848Z,3.73
2024-03-26T11:30:57.926Z,2.70
2024-03-26T11:33:37.701Z,2.90
2024-03-26T11:36:12.348Z,2.40
2024-03-26T11:38:45.233Z,2.27
2024-03-26T11:41:19.648Z,1.87
2024-03-26T11:43:52.764Z,2.10
2024-03-26T11:46:26.763Z,2.87
2024-03-26T11:49:13.381Z,2.43
2024-03-26T11:51:47.376Z,2.23
2024-03-26T11:54:20.022Z,2.67
2024-03-26T11:56:52.831Z,2.33
2024-03-26T11:59:27.505Z,3.43
2024-03-26T12:02:00.299Z,3.07
2024-03-26T12:04:33.260Z,3.43
2024-03-26T12:07:06.970Z,2.17
2024-03-26T12:09:41.620Z,2.07
2024-03-26T12:12:14.926Z,4.87
2024-03-26T12:14:48.456Z,2.43
2024-03-26T12:17:21.310Z,3.77
2024-03-26T12:19:54.318Z,2.97
2024-03-26T12:22:27.040Z,4.23
2024-03-26T12:25:00.180Z,2.50
2024-03-26T12:27:33.205Z,2.70
2024-03-26T12:30:06.910Z,2.67
2024-03-26T12:32:39.706Z,2.30
2024-03-26T12:35:12.969Z,3.90
2024-03-26T12:37:46.846Z,2.63
2024-03-26T12:40:19.742Z,3.17
2024-03-26T12:42:52.532Z,2.63
2024-03-26T12:45:25.469Z,2.67
2024-03-26T12:47:58.247Z,2.93
2024-03-26T12:50:31.104Z,3.33
2024-03-26T12:53:04.035Z,4.13
2024-03-26T12:55:36.982Z,3.23
2024-03-26T12:58:09.738Z,2.83
2024-03-26T13:00:43.589Z,3.63
2024-03-26T13:03:16.722Z,3.10
2024-03-26T13:05:49.417Z,3.60
2024-03-26T13:08:22.259Z,2.80
2024-03-26T13:10:55.061Z,4.03
2024-03-26T13:13:28.239Z,3.10
2024-03-26T13:16:00.879Z,2.87
2024-03-26T13:18:33.972Z,2.80
2024-03-26T13:21:06.819Z,3.60
2024-03-26T13:23:39.921Z,2.20
2024-03-26T13:26:12.770Z,3.70
2024-03-26T13:28:45.838Z,5.20
2024-03-26T13:31:19.104Z,3.30
2024-03-26T13:33:53.263Z,3.27
2024-03-26T13:36:26.246Z,2.80
2024-03-26T13:38:59.188Z,3.63
2024-03-26T13:41:31.980Z,3.23
2024-03-26T13:44:04.976Z,3.57
2024-03-26T13:46:37.840Z,3.33
2024-03-26T13:49:13.995Z,4.37
2024-03-26T13:51:47.013Z,3.10
2024-03-26T13:54:20.662Z,4.20
2024-03-26T13:56:53.735Z,3.30
2024-03-26T13:59:26.689Z,3.10
2024-03-26T14:01:59.523Z,3.27
2024-03-26T14:04:32.376Z,3.03
2024-03-26T14:07:05.140Z,4.60
2024-03-26T14:09:39.660Z,3.10
2024-03-26T14:12:13.272Z,3.20
2024-03-26T14:14:46.233Z,4.10
2024-03-26T14:17:19.065Z,4.23
2024-03-26T14:19:51.968Z,2.83
2024-03-26T14:22:25.874Z,2.80
2024-03-26T14:24:58.764Z,2.80
2024-03-26T14:27:31.863Z,3.93
2024-03-26T14:30:06.094Z,3.50
2024-03-26T14:32:39.445Z,2.93
2024-03-26T14:35:14.185Z,3.00
2024-03-26T14:37:48.885Z,3.10
2024-03-26T14:40:21.765Z,3.23
2024-03-26T14:42:54.572Z,3.30
2024-03-26T14:45:27.463Z,3.60
2024-03-26T14:48:00.390Z,2.93
2024-03-26T14:50:33.201Z,3.50
2024-03-26T14:53:06.886Z,3.37
2024-03-26T14:55:39.670Z,3.67
2024-03-26T14:58:14.942Z,5.17
2024-03-26T15:00:54.354Z,3.73
2024-03-26T15:03:27.363Z,3.70
2024-03-26T15:06:00.247Z,5.50
2024-03-26T15:08:33.055Z,3.40
2024-03-26T15:11:06.396Z,4.20
2024-03-26T15:13:38.870Z,4.40
2024-03-26T15:16:16.188Z,4.27
2024-03-26T15:18:46.085Z,3.20
2024-03-26T15:21:20.939Z,4.03
2024-03-26T15:23:53.782Z,4.43
2024-03-26T15:26:26.491Z,4.20
2024-03-26T15:29:16.751Z,5.63
2024-03-26T15:32:05.117Z,3.30
2024-03-26T15:34:37.987Z,4.50
2024-03-26T15:37:11.313Z,5.03
2024-03-26T15:39:44.104Z,4.13
2024-03-26T15:42:17.373Z,4.73
2024-03-26T15:44:50.681Z,3.50
2024-03-26T15:47:23.479Z,3.80
2024-03-26T15:49:56.473Z,4.33
2024-03-26T15:52:29.536Z,4.17
2024-03-26T15:55:02.331Z,4.40
2024-03-26T15:57:38.070Z,4.23
2024-03-26T16:00:11.862Z,3.80
2024-03-26T16:02:44.750Z,5.57
2024-03-26T16:05:18.594Z,3.90
2024-03-26T16:07:51.563Z,4.83
2024-03-26T16:10:38.251Z,4.30
2024-03-26T16:12:58.217Z,4.50
2024-03-26T16:15:31.189Z,4.90
2024-03-26T16:18:04.055Z,4.10
2024-03-26T16:20:39.263Z,4.70
2024-03-26T16:23:12.979Z,5.00
2024-03-26T16:25:48.922Z,4.67
2024-03-26T16:28:21.852Z,4.03
2024-03-26T16:30:54.833Z,3.40
2024-03-26T16:33:27.887Z,3.87
2024-03-26T16:36:14.666Z,4.73
2024-03-26T16:38:47.497Z,3.43
2024-03-26T16:41:37.615Z,4.50
2024-03-26T16:44:10.449Z,4.20
2024-03-26T16:46:43.439Z,4.67
2024-03-26T16:49:16.329Z,3.87
2024-03-26T16:51:49.793Z,3.97
2024-03-26T16:54:22.683Z,4.00
2024-03-26T16:56:55.607Z,5.23
2024-03-26T16:59:28.713Z,4.27
2024-03-26T17:02:01.927Z,4.73
2024-03-26T17:04:37.271Z,4.70
2024-03-26T17:07:10.116Z,4.53
2024-03-26T17:09:42.855Z,3.97
2024-03-26T17:12:15.795Z,5.30
2024-03-26T17:14:48.731Z,5.23
2024-03-26T17:17:21.640Z,4.67
2024-03-26T17:19:54.708Z,5.40
2024-03-26T17:22:27.643Z,4.00
2024-03-26T17:25:00.523Z,4.33
2024-03-26T17:27:33.475Z,4.50
2024-03-26T17:30:06.689Z,4.87
2024-03-26T17:32:39.423Z,4.43
2024-03-26T17:35:13.387Z,4.60
2024-03-26T17:37:46.108Z,4.90
2024-03-26T17:40:19.243Z,4.20
2024-03-26T17:42:52.198Z,5.20
2024-03-26T17:45:25.127Z,5.10
2024-03-26T17:47:57.957Z,4.63
2024-03-26T17:50:31.048Z,5.07
2024-03-26T17:53:05.034Z,5.80
2024-03-26T17:55:37.790Z,4.23
2024-03-26T17:58:10.934Z,4.90
2024-03-26T18:00:44.066Z,4.43
2024-03-26T18:03:17.123Z,4.80
2024-03-26T18:05:50.109Z,5.57
2024-03-26T18:08:23.457Z,4.20
2024-03-26T18:11:03.671Z,4.30
2024-03-26T18:13:36.907Z,5.63
2024-03-26T18:16:10.475Z,4.90
2024-03-26T18:18:43.375Z,4.53
2024-03-26T18:21:16.443Z,4.57
2024-03-26T18:23:49.310Z,4.20
2024-03-26T18:26:22.129Z,3.93
2024-03-26T18:28:55.170Z,5.17
2024-03-26T18:31:28.021Z,5.23
2024-03-26T18:34:00.784Z,5.03
2024-03-26T18:36:33.714Z,6.40
2024-03-26T18:39:06.890Z,4.80
2024-03-26T18:41:39.907Z,5.43
2024-03-26T18:44:12.708Z,5.77
2024-03-26T18:46:45.759Z,4.43
2024-03-26T18:49:18.663Z,4.67
2024-03-26T18:51:51.622Z,4.90
2024-03-26T18:54:24.480Z,5.20
2024-03-26T18:56:57.721Z,4.80
2024-03-26T18:59:30.572Z,4.50
2024-03-26T19:02:03.430Z,4.10
2024-03-26T19:04:36.204Z,6.80
2024-03-26T19:07:09.221Z,4.57
2024-03-26T19:09:42.280Z,5.80
2024-03-26T19:12:15.106Z,4.57
2024-03-26T19:14:48.138Z,4.30
2024-03-26T19:17:21.333Z,5.33
2024-03-26T19:19:54.271Z,4.93
2024-03-26T19:22:27.071Z,5.80
2024-03-26T19:25:00.603Z,4.67
2024-03-26T19:27:33.350Z,5.20
2024-03-26T19:30:05.998Z,3.93
2024-03-26T19:32:39.695Z,4.60
2024-03-26T19:35:15.792Z,3.90
2024-03-26T19:37:49.054Z,7.10
2024-03-26T19:40:22.525Z,5.00
2024-03-26T19:42:55.489Z,5.00
2024-03-26T19:45:29.107Z,5.10
2024-03-26T19:48:01.855Z,4.97
2024-03-26T19:50:34.595Z,4.47
2024-03-26T19:53:08.963Z,5.07
2024-03-26T19:55:42.785Z,4.60
2024-03-26T19:58:15.993Z,4.80
2024-03-26T20:00:49.194Z,4.03
2024-03-26T20:03:22.484Z,4.57
2024-03-26T20:05:56.198Z,5.13
2024-03-26T20:08:29.049Z,4.80
2024-03-26T20:11:02.266Z,4.77
2024-03-26T20:13:35.550Z,4.90
2024-03-26T20:16:09.399Z,4.23
2024-03-26T20:18:42.506Z,4.73
2024-03-26T20:21:15.057Z,4.30
2024-03-26T20:23:48.461Z,4.50
2024-03-26T20:26:21.278Z,4.40
2024-03-26T20:28:54.295Z,5.00
2024-03-26T20:31:34.320Z,5.07
2024-03-26T20:34:01.442Z,4.70
2024-03-26T20:36:34.265Z,4.50
2024-03-26T20:39:07.345Z,4.90
2024-03-26T20:41:40.396Z,4.93
2024-03-26T20:44:15.254Z,5.43
2024-03-26T20:46:47.271Z,5.30
2024-03-26T20:49:20.278Z,4.97
2024-03-26T20:51:53.319Z,4.00
2024-03-26T20:54:26.097Z,5.10
2024-03-26T20:56:58.940Z,4.70
2024-03-26T20:59:32.318Z,4.73
2024-03-26T21:02:05.316Z,6.30
2024-03-26T21:04:38.426Z,4.97
2024-03-26T21:07:11.560Z,5.83
2024-03-26T21:09:44.135Z,5.83
2024-03-26T21:12:17.116Z,6.50
2024-03-26T21:14:49.741Z,5.47
2024-03-26T21:17:22.725Z,5.50
2024-03-26T21:19:56.962Z,4.90
2024-03-26T21:22:29.671Z,5.57
2024-03-26T21:25:02.635Z,4.00
2024-03-26T21:27:35.643Z,5.07
2024-03-26T21:30:09.972Z,4.97
2024-03-26T21:32:42.887Z,5.27
2024-03-26T21:35:15.664Z,4.87
2024-03-26T21:37:48.306Z,5.10
2024-03-26T21:40:22.439Z,5.10
2024-03-26T21:42:55.846Z,5.90
2024-03-26T21:45:28.694Z,4.60
2024-03-26T21:48:01.905Z,4.20
2024-03-26T21:50:34.661Z,5.30
2024-03-26T21:53:07.958Z,4.90
2024-03-26T21:55:41.017Z,5.37
2024-03-26T21:58:13.974Z,4.57
2024-03-26T22:00:46.871Z,4.20
2024-03-26T22:03:19.651Z,4.73
2024-03-26T22:05:54.161Z,4.00
2024-03-26T22:08:28.108Z,3.90
2024-03-26T22:11:02.486Z,4.17
2024-03-26T22:13:35.378Z,5.63
2024-03-26T22:16:09.074Z,4.40
2024-03-26T22:18:41.865Z,4.70
2024-03-26T22:21:16.199Z,3.93
2024-03-26T22:23:49.156Z,4.40
2024-03-26T22:26:27.828Z,4.80
2024-03-26T22:29:00.835Z,4.87
2024-03-26T22:31:34.916Z,4.70
2024-03-26T22:34:07.730Z,3.27
2024-03-26T22:36:40.322Z,4.20
2024-03-26T22:39:13.138Z,3.63
2024-03-26T22:41:46.081Z,5.73
2024-03-26T22:44:18.948Z,5.80
2024-03-26T22:46:51.892Z,5.03
2024-03-26T22:49:24.683Z,3.70
2024-03-26T22:51:57.466Z,4.00
2024-03-26T22:54:30.801Z,4.57
2024-03-26T22:57:03.655Z,3.93
2024-03-26T22:59:36.511Z,3.67
2024-03-26T23:02:11.151Z,4.50
2024-03-26T23:04:44.186Z,3.70
2024-03-26T23:07:17.264Z,5.23
2024-03-26T23:09:50.057Z,4.33
2024-03-26T23:12:22.835Z,4.80
2024-03-26T23:15:04.625Z,4.07
2024-03-26T23:17:35.805Z,4.47
2024-03-26T23:20:10.495Z,3.77
2024-03-26T23:22:43.809Z,3.63
2024-03-26T23:25:16.558Z,4.40
2024-03-26T23:27:49.621Z,4.23
2024-03-26T23:30:22.615Z,4.30
2024-03-26T23:32:55.603Z,4.13
2024-03-26T23:35:29.643Z,3.10
2024-03-26T23:38:02.480Z,3.40
2024-03-26T23:40:35.289Z,3.47
2024-03-26T23:43:08.025Z,3.90
2024-03-26T23:45:40.580Z,4.17
2024-03-26T23:48:13.996Z,3.23
2024-03-26T23:50:46.821Z,4.43
2024-03-26T23:53:19.849Z,4.20
2024-03-26T23:55:53.437Z,3.60
2024-03-26T23:58:26.366Z,3.27
